Time;durP1;ratioP1;P1;durP2;ratioP2;P2;SDS_P1;SDS_P2;PMS_P1;PMS_P2;Temp;Humidity;BMP_temperature;BMP_pressure;BME280_temperature;BME280_humidity;BME280_pressure;Samples;Min_cycle;Max_cycle;Signal;HPM_P1;HPM_P2
2023/10/09 00:01:34;;;;;;;0.30;0.20;;;;;;;17.40;100.00;102078.47;2056571;28;20399;-69
2023/10/09 00:02:34;;;;;;;0.30;0.20;;;;;;;17.40;100.00;102075.66;2056259;28;20412;-69
2023/10/09 00:03:36;;;;;;;1.43;0.30;;;;;;;17.39;100.00;102081.72;2056160;28;20554;-69
2023/10/09 00:04:41;;;;;;;0.90;0.50;;;;;;;17.37;100.00;102093.34;2056668;28;20557;-69
2023/10/09 00:06:46;;;;;;;1.13;0.40;;;;;;;17.34;100.00;102088.63;2055141;28;20459;-69
2023/10/09 00:07:47;;;;;;;0.60;0.30;;;;;;;17.34;100.00;102086.59;2055241;28;20900;-69
2023/10/09 00:08:50;;;;;;;0.30;0.30;;;;;;;17.31;100.00;102095.13;2055706;28;20533;-69
2023/10/09 00:09:55;;;;;;;0.73;0.30;;;;;;;17.31;100.00;102095.88;2056221;28;20210;-68
2023/10/09 00:10:57;;;;;;;1.83;0.37;;;;;;;17.09;100.00;102066.09;2055878;28;20448;-68
2023/10/09 00:11:58;;;;;;;2.57;0.30;;;;;;;17.16;100.00;102091.16;2056025;28;20830;-69
2023/10/09 00:12:58;;;;;;;0.70;0.47;;;;;;;17.20;100.00;102097.41;2055906;28;20423;-69
2023/10/09 00:13:58;;;;;;;2.53;0.47;;;;;;;17.22;100.00;102104.16;2056451;28;20194;-69
2023/10/09 00:15:09;;;;;;;2.60;0.60;;;;;;;17.21;100.00;102099.78;2056561;28;20215;-69
2023/10/09 00:16:16;;;;;;;0.30;0.20;;;;;;;16.50;100.00;102012.53;2056805;28;20170;-69
2023/10/09 00:17:17;;;;;;;1.27;0.50;;;;;;;17.08;100.00;102115.75;2055996;28;20981;-69
2023/10/09 00:18:23;;;;;;;0.40;0.30;;;;;;;17.07;100.00;102116.97;2054404;28;20548;-69
2023/10/09 00:19:32;;;;;;;1.20;0.40;;;;;;;17.11;100.00;102116.91;2055626;28;20428;-68
2023/10/09 00:20:39;;;;;;;1.17;0.60;;;;;;;16.62;100.00;102042.59;2056411;28;20526;-69
2023/10/09 00:21:50;;;;;;;0.60;0.47;;;;;;;17.10;100.00;102116.09;2049609;28;20423;-68
2023/10/09 00:22:51;;;;;;;1.73;0.67;;;;;;;17.10;100.00;102118.09;2055200;28;20532;-68
2023/10/09 00:23:59;;;;;;;2.83;0.50;;;;;;;17.10;100.00;102115.28;2056203;28;20434;-68
2023/10/09 00:25:11;;;;;;;0.60;0.43;;;;;;;16.58;100.00;102033.50;2056295;28;20896;-68
2023/10/09 00:26:19;;;;;;;2.77;0.83;;;;;;;17.06;100.00;102117.44;2056168;28;20444;-68
2023/10/09 00:27:21;;;;;;;0.97;0.50;;;;;;;17.02;100.00;102114.72;2055235;28;20448;-68
2023/10/09 00:28:23;;;;;;;6.07;0.87;;;;;;;17.05;100.00;102119.44;2055597;28;20964;-68
2023/10/09 00:29:27;;;;;;;2.30;0.60;;;;;;;17.05;100.00;102113.81;2055267;28;21071;-68
2023/10/09 00:30:30;;;;;;;0.70;0.50;;;;;;;17.02;100.00;102105.53;2056641;28;20628;-68
2023/10/09 00:31:33;;;;;;;0.73;0.50;;;;;;;17.01;100.00;102112.38;2056192;28;21042;-68
2023/10/09 00:32:36;;;;;;;0.50;0.33;;;;;;;16.74;100.00;102078.25;2055603;28;20461;-68
2023/10/09 00:33:37;;;;;;;0.40;0.40;;;;;;;17.01;100.00;102113.13;2056038;28;20874;-69
2023/10/09 00:34:39;;;;;;;0.80;0.60;;;;;;;16.65;100.00;102067.69;2055978;28;20433;-69
2023/10/09 00:35:54;;;;;;;1.87;0.70;;;;;;;16.93;100.00;102116.56;2056284;28;20181;-69
2023/10/09 00:36:56;;;;;;;4.10;0.70;;;;;;;16.84;100.00;102114.41;2055427;28;20927;-68
2023/10/09 00:38:03;;;;;;;1.90;0.60;;;;;;;16.78;100.00;102110.56;2055160;28;20850;-68
2023/10/09 00:39:17;;;;;;;1.43;0.70;;;;;;;16.84;100.00;102120.00;2055242;28;20418;-68
2023/10/09 00:40:27;;;;;;;0.73;0.50;;;;;;;16.83;100.00;102129.63;2055458;28;20472;-68
2023/10/09 00:41:29;;;;;;;0.70;0.50;;;;;;;16.86;100.00;102125.16;2056104;28;20418;-69
2023/10/09 00:42:31;;;;;;;0.73;0.50;;;;;;;16.83;100.00;102115.63;2056204;28;20936;-69
2023/10/09 00:43:32;;;;;;;1.37;0.87;;;;;;;16.90;100.00;102123.06;2056460;28;20464;-69
2023/10/09 00:44:42;;;;;;;1.27;0.67;;;;;;;16.84;100.00;102128.41;2056350;28;20497;-68
2023/10/09 00:45:44;;;;;;;1.30;0.57;;;;;;;16.83;100.00;102126.03;2056632;28;20710;-68
2023/10/09 00:46:47;;;;;;;1.20;0.80;;;;;;;16.83;100.00;102122.47;2055468;28;20714;-68
2023/10/09 00:47:48;;;;;;;4.30;0.80;;;;;;;16.80;100.00;102119.28;2055115;28;20884;-68
2023/10/09 00:48:51;;;;;;;1.37;0.87;;;;;;;16.83;100.00;102126.81;2055836;28;20509;-68
2023/10/09 00:50:08;;;;;;;1.90;1.07;;;;;;;16.83;100.00;102128.06;2056133;28;20434;-69
2023/10/09 00:51:17;;;;;;;4.03;1.10;;;;;;;16.60;100.00;102096.22;2055689;28;20457;-69
2023/10/09 00:52:24;;;;;;;2.83;1.23;;;;;;;16.81;100.00;102123.66;2056245;28;20847;-69
2023/10/09 00:53:31;;;;;;;2.87;1.00;;;;;;;16.83;100.00;102136.47;2055958;28;20516;-69
2023/10/09 00:54:41;;;;;;;1.77;1.00;;;;;;;16.76;100.00;102137.41;2055812;28;20449;-69
2023/10/09 00:55:45;;;;;;;6.50;0.90;;;;;;;16.65;100.00;102137.69;2055850;28;20801;-69
2023/10/09 00:56:57;;;;;;;2.47;0.80;;;;;;;16.26;100.00;102097.84;2055682;28;20952;-69
2023/10/09 00:57:59;;;;;;;2.13;1.00;;;;;;;16.53;100.00;102151.56;2054968;28;20828;-69
2023/10/09 00:59:08;;;;;;;1.30;0.80;;;;;;;16.52;100.00;102152.03;2056052;28;20437;-69
2023/10/09 01:00:32;;;;;;;2.33;0.80;;;;;;;16.52;100.00;102143.63;2055873;28;20444;-69
2023/10/09 01:01:36;;;;;;;2.17;0.97;;;;;;;16.57;100.00;102151.50;2056041;28;20441;-69
2023/10/09 01:02:42;;;;;;;2.13;0.97;;;;;;;16.58;100.00;102155.88;2054959;28;20505;-69
2023/10/09 01:03:45;;;;;;;3.20;0.83;;;;;;;16.55;100.00;102149.91;2055252;28;20485;-69
2023/10/09 01:04:46;;;;;;;4.27;0.97;;;;;;;16.58;100.00;102158.69;2056108;28;20449;-69
2023/10/09 01:05:57;;;;;;;2.07;1.07;;;;;;;16.52;100.00;102152.81;2056856;28;20451;-69
2023/10/09 01:07:08;;;;;;;2.20;0.73;;;;;;;16.03;100.00;102095.22;2052466;28;20189;-69
2023/10/09 01:08:16;;;;;;;4.17;1.00;;;;;;;16.43;100.00;102163.81;2056491;28;20432;-69
2023/10/09 01:09:17;;;;;;;1.67;0.87;;;;;;;16.39;100.00;102166.69;2057437;28;20537;-69
2023/10/09 01:10:18;;;;;;;1.80;1.00;;;;;;;16.31;100.00;102168.06;2057727;28;20421;-69
2023/10/09 01:11:19;;;;;;;2.30;1.07;;;;;;;16.32;100.00;102174.44;2057655;28;20276;-69
2023/10/09 01:12:21;;;;;;;1.50;1.10;;;;;;;16.34;100.00;102166.41;2057627;28;20432;-69
2023/10/09 01:13:39;;;;;;;2.27;0.90;;;;;;;16.27;100.00;102172.16;2057847;28;20514;-69
2023/10/09 01:14:42;;;;;;;2.33;1.03;;;;;;;16.25;100.00;102169.00;2057472;28;20979;-69
2023/10/09 01:15:44;;;;;;;4.03;0.90;;;;;;;15.99;100.00;102133.66;2057952;28;20853;-69
2023/10/09 01:16:46;;;;;;;1.00;0.67;;;;;;;16.11;100.00;102170.13;2056724;28;20445;-69
2023/10/09 01:17:47;;;;;;;1.33;0.70;;;;;;;16.04;100.00;102175.84;2056496;28;20955;-69
2023/10/09 01:18:50;;;;;;;1.43;0.90;;;;;;;15.43;100.00;102076.16;2057458;28;20789;-69
2023/10/09 01:19:55;;;;;;;1.73;0.80;;;;;;;15.93;100.00;102168.94;2056958;28;20676;-69
2023/10/09 01:20:56;;;;;;;4.43;0.77;;;;;;;15.91;100.00;102180.53;2057637;28;20451;-69
2023/10/09 01:22:16;;;;;;;3.57;0.60;;;;;;;15.35;100.00;102095.06;2057528;28;20438;-69
2023/10/09 01:23:16;;;;;;;5.40;0.80;;;;;;;15.85;100.00;102182.28;2057390;28;20684;-69
2023/10/09 01:24:19;;;;;;;1.23;0.50;;;;;;;15.66;100.00;102174.69;2057345;28;20478;-69
2023/10/09 01:25:21;;;;;;;1.30;0.57;;;;;;;15.75;100.00;102190.88;2057650;28;20288;-69
2023/10/09 01:26:22;;;;;;;2.07;0.80;;;;;;;15.77;100.00;102192.00;2057580;28;20506;-69
2023/10/09 01:27:25;;;;;;;0.60;0.47;;;;;;;15.80;100.00;102193.16;2056769;28;21057;-69
2023/10/09 01:28:28;;;;;;;2.50;1.17;;;;;;;15.80;100.00;102193.16;2057076;28;20415;-69
2023/10/09 01:29:29;;;;;;;3.20;0.67;;;;;;;15.79;100.00;102192.34;2057777;28;20415;-69
2023/10/09 01:30:29;;;;;;;1.60;0.87;;;;;;;15.79;100.00;102200.75;2057611;28;20511;-69
2023/10/09 01:31:37;;;;;;;1.63;0.50;;;;;;;15.78;100.00;102201.97;2057328;28;20223;-69
2023/10/09 01:32:37;;;;;;;0.67;0.40;;;;;;;15.79;100.00;102199.97;2057200;28;20199;-69
2023/10/09 01:33:38;;;;;;;1.37;0.60;;;;;;;15.76;100.00;102203.63;2057051;28;20432;-69
2023/10/09 01:34:41;;;;;;;2.03;0.70;;;;;;;15.71;100.00;102201.31;2057241;28;20222;-69
2023/10/09 01:35:48;;;;;;;1.47;0.60;;;;;;;15.64;100.00;102207.06;2056947;28;20190;-69
2023/10/09 01:36:49;;;;;;;1.37;0.60;;;;;;;15.60;100.00;102215.53;2056812;28;20453;-69
2023/10/09 01:37:51;;;;;;;1.77;0.70;;;;;;;15.60;100.00;102212.72;2056023;28;20420;-69
2023/10/09 01:38:53;;;;;;;0.83;0.50;;;;;;;14.94;100.00;102118.97;2057628;28;20187;-69
2023/10/09 01:39:59;;;;;;;5.30;0.70;;;;;;;15.52;100.00;102219.66;2057932;28;20826;-68
2023/10/09 01:41:08;;;;;;;1.77;0.70;;;;;;;15.53;100.00;102221.22;2057831;28;20406;-68
2023/10/09 01:42:09;;;;;;;0.73;0.60;;;;;;;15.52;100.00;102224.47;2057886;28;20405;-68
2023/10/09 01:43:10;;;;;;;1.33;0.43;;;;;;;15.45;100.00;102219.00;2057445;28;20516;-68
2023/10/09 01:44:12;;;;;;;1.17;0.63;;;;;;;15.44;100.00;102223.81;2057137;28;20482;-68
2023/10/09 01:46:19;;;;;;;1.07;0.50;;;;;;;15.41;100.00;102223.84;2056848;28;20451;-68
2023/10/09 01:47:21;;;;;;;0.80;0.47;;;;;;;15.41;100.00;102233.03;2056632;28;20776;-68
2023/10/09 01:48:24;;;;;;;2.40;0.70;;;;;;;15.38;100.00;102231.09;2055477;28;20456;-69
2023/10/09 01:49:31;;;;;;;2.23;1.03;;;;;;;14.73;100.00;102136.91;2056978;28;20415;-69
2023/10/09 01:50:35;;;;;;;2.93;0.83;;;;;;;15.29;100.00;102225.25;2057063;28;20772;-69
2023/10/09 01:51:36;;;;;;;0.90;0.50;;;;;;;15.34;100.00;102240.75;2056325;28;20430;-69
2023/10/09 01:52:38;;;;;;;1.20;0.70;;;;;;;15.29;100.00;102244.81;2056651;28;20421;-69
2023/10/09 01:53:38;;;;;;;1.23;0.80;;;;;;;15.15;100.00;102244.25;2057691;28;20509;-69
2023/10/09 01:54:46;;;;;;;3.43;0.97;;;;;;;15.07;100.00;102243.56;2056991;28;20454;-69
2023/10/09 01:55:47;;;;;;;2.20;0.80;;;;;;;14.40;100.00;102139.84;2057422;28;20653;-69
2023/10/09 01:56:47;;;;;;;1.90;0.60;;;;;;;15.04;100.00;102238.06;2056764;28;20837;-69
2023/10/09 01:57:48;;;;;;;1.73;0.77;;;;;;;15.11;100.00;102249.13;2056107;28;20195;-69
2023/10/09 01:58:50;;;;;;;2.03;0.70;;;;;;;15.09;100.00;102248.75;2057070;28;20199;-69
2023/10/09 01:59:55;;;;;;;1.17;0.77;;;;;;;14.99;100.00;102249.69;2057331;28;20206;-69
2023/10/09 02:00:55;;;;;;;0.83;0.57;;;;;;;14.95;100.00;102252.56;2057230;28;20928;-69
2023/10/09 02:01:58;;;;;;;5.27;1.10;;;;;;;14.92;100.00;102253.41;2056788;28;20805;-69
2023/10/09 02:03:04;;;;;;;1.27;0.53;;;;;;;14.84;100.00;102243.56;2057169;28;20173;-69
2023/10/09 02:04:11;;;;;;;0.73;0.40;;;;;;;14.90;100.00;102252.25;2057625;28;20454;-69
2023/10/09 02:06:26;;;;;;;1.23;0.60;;;;;;;14.86;100.00;102252.28;2057532;28;20419;-69
2023/10/09 02:07:38;;;;;;;2.07;0.60;;;;;;;14.83;100.00;102249.56;2056813;28;20778;-69
2023/10/09 02:08:38;;;;;;;4.13;0.47;;;;;;;14.83;100.00;102261.53;2057585;28;20835;-69
2023/10/09 02:09:46;;;;;;;0.63;0.40;;;;;;;14.82;100.00;102259.97;2057248;28;20870;-69
2023/10/09 02:10:47;;;;;;;2.40;0.53;;;;;;;14.82;100.00;102261.94;2056799;28;20273;-69
2023/10/09 02:11:48;;;;;;;2.23;0.83;;;;;;;14.81;100.00;102263.16;2057318;28;20489;-69
2023/10/09 02:12:57;;;;;;;0.40;0.30;;;;;;;14.81;100.00;102255.56;2057075;28;20461;-69
2023/10/09 02:13:59;;;;;;;1.57;0.67;;;;;;;14.79;100.00;102259.97;2057022;28;20286;-69
2023/10/09 02:15:06;;;;;;;0.83;0.47;;;;;;;14.77;100.00;102256.84;2056766;28;20689;-69
2023/10/09 02:16:26;;;;;;;2.13;0.50;;;;;;;14.74;100.00;102260.47;2056408;28;20442;-69
2023/10/09 02:17:29;;;;;;;1.33;0.93;;;;;;;14.73;100.00;102261.69;2056192;28;20449;-69
2023/10/09 02:19:40;;;;;;;1.07;0.60;;;;;;;14.69;100.00;102272.09;2056735;28;20453;-69
2023/10/09 02:20:40;;;;;;;3.90;0.50;;;;;;;14.64;100.00;102265.00;2056926;28;20970;-69
2023/10/09 02:21:41;;;;;;;1.23;0.53;;;;;;;14.63;100.00;102271.78;2056917;28;20896;-69
2023/10/09 02:22:42;;;;;;;5.90;0.63;;;;;;;14.64;100.00;102272.56;2057043;28;20233;-69
2023/10/09 02:25:53;;;;;;;1.53;0.60;;;;;;;14.58;100.00;102271.47;2057543;28;20433;-69
2023/10/09 02:27:55;;;;;;;1.80;0.83;;;;;;;14.18;100.00;102203.47;2055797;28;20834;-69
2023/10/09 02:28:58;;;;;;;1.57;0.63;;;;;;;14.51;100.00;102279.94;2057233;28;20190;-69
2023/10/09 02:29:59;;;;;;;1.23;0.50;;;;;;;13.76;100.00;102142.72;2057205;28;20477;-69
2023/10/09 02:31:09;;;;;;;2.97;0.60;;;;;;;14.54;100.00;102285.47;2055513;28;21051;-69
2023/10/09 02:32:25;;;;;;;3.80;0.70;;;;;;;14.53;100.00;102269.16;2056388;28;20554;-69
2023/10/09 02:33:28;;;;;;;2.13;0.80;;;;;;;14.51;100.00;102260.41;2048706;29;20542;-69
2023/10/09 02:34:29;;;;;;;1.80;0.67;;;;;;;14.50;100.00;102270.00;2048845;29;20514;-69
2023/10/09 02:35:42;;;;;;;2.67;0.70;;;;;;;14.47;100.00;102266.06;2048833;29;20462;-69
2023/10/09 02:37:31;;;;;;;2.23;0.80;;;;;;;14.45;100.00;102274.03;2048589;29;20380;-69
2023/10/09 02:38:07;;;;;;;4.37;0.53;;;;;;;14.42;100.00;102263.72;2043918;29;20492;-69
2023/10/09 02:39:22;;;;;;;3.13;0.50;;;;;;;14.41;100.00;102267.72;2048987;29;20522;-69
2023/10/09 02:40:31;;;;;;;1.73;0.50;;;;;;;14.40;100.00;102262.56;2048918;29;20529;-69
2023/10/09 02:41:34;;;;;;;1.87;0.70;;;;;;;14.37;100.00;102261.41;2048350;28;20535;-69
2023/10/09 02:42:34;;;;;;;3.80;0.60;;;;;;;14.35;100.00;102258.22;2047675;29;20857;-69
2023/10/09 02:43:44;;;;;;;4.40;0.77;;;;;;;14.34;100.00;102270.59;2048963;29;20447;-69
2023/10/09 02:44:50;;;;;;;3.03;1.20;;;;;;;14.27;100.00;102261.53;2048921;29;20268;-69
2023/10/09 02:45:50;;;;;;;1.27;0.60;;;;;;;14.29;100.00;102273.84;2048936;29;21174;-69
2023/10/09 02:46:51;;;;;;;2.67;0.90;;;;;;;14.27;100.00;102275.47;2048127;29;20633;-69
2023/10/09 02:47:51;;;;;;;1.33;0.50;;;;;;;14.26;100.00;102283.06;2047525;29;20182;-69
2023/10/09 02:48:52;;;;;;;1.33;0.57;;;;;;;13.86;100.00;102214.25;2049204;29;20199;-69
2023/10/09 02:50:00;;;;;;;1.93;0.50;;;;;;;13.82;100.00;102219.06;2048996;29;20183;-69
2023/10/09 02:51:02;;;;;;;5.43;0.53;;;;;;;14.17;100.00;102291.13;2048895;29;20230;-69
2023/10/09 02:52:07;;;;;;;1.23;0.30;;;;;;;14.10;100.00;102282.03;2049085;28;20439;-69
2023/10/09 02:53:09;;;;;;;1.87;0.60;;;;;;;14.06;100.00;102289.66;2049018;29;20450;-69
2023/10/09 02:54:27;;;;;;;2.20;0.60;;;;;;;14.04;100.00;102292.84;2048726;29;20822;-69
2023/10/09 02:55:27;;;;;;;1.63;0.70;;;;;;;14.03;100.00;102296.06;2047756;29;20463;-69
2023/10/09 02:56:40;;;;;;;0.70;0.30;;;;;;;13.97;100.00;102292.94;2048003;28;20435;-69
2023/10/09 02:57:43;;;;;;;1.67;0.50;;;;;;;13.81;100.00;102270.44;2045120;29;20203;-69
2023/10/09 02:58:44;;;;;;;1.63;0.50;;;;;;;13.08;100.00;102163.38;2048772;28;20446;-69
2023/10/09 02:59:44;;;;;;;1.80;0.60;;;;;;;13.88;100.00;102292.63;2048147;29;20475;-69
2023/10/09 03:00:46;;;;;;;2.37;0.50;;;;;;;13.80;100.00;102279.19;2048516;28;20227;-69
2023/10/09 03:01:47;;;;;;;1.73;0.47;;;;;;;13.87;100.00;102291.06;2048797;29;20740;-69
2023/10/09 03:02:50;;;;;;;4.60;0.87;;;;;;;13.86;100.00;102289.50;2048413;29;20930;-69
2023/10/09 03:03:51;;;;;;;1.87;0.70;;;;;;;13.80;100.00;102273.63;2049093;29;20284;-69
2023/10/09 03:04:54;;;;;;;2.83;0.87;;;;;;;13.84;100.00;102279.97;2048859;29;20451;-69
2023/10/09 03:05:55;;;;;;;2.13;0.43;;;;;;;13.82;100.00;102279.56;2040078;29;20196;-69
2023/10/09 03:06:57;;;;;;;1.47;0.50;;;;;;;13.80;100.00;102280.00;2039827;29;20541;-69
2023/10/09 03:07:59;;;;;;;2.10;0.70;;;;;;;12.96;100.00;102155.53;2047871;29;20341;-69
2023/10/09 03:09:16;;;;;;;2.13;0.70;;;;;;;13.76;100.00;102289.59;2048692;28;20435;-69
2023/10/09 03:10:17;;;;;;;2.83;0.70;;;;;;;13.74;100.00;102284.41;2048698;29;20461;-69
2023/10/09 03:11:18;;;;;;;0.70;0.30;;;;;;;13.73;100.00;102290.44;2048670;29;20447;-69
2023/10/09 03:12:21;;;;;;;1.50;0.53;;;;;;;13.69;100.00;102293.22;2048674;29;21964;-69
2023/10/09 03:13:22;;;;;;;2.03;0.87;;;;;;;13.59;100.00;102294.16;2048713;29;20811;-69
2023/10/09 03:14:26;;;;;;;2.40;0.70;;;;;;;12.88;100.00;102184.63;2048056;29;20427;-69
2023/10/09 03:15:29;;;;;;;3.10;0.77;;;;;;;13.56;100.00;102285.81;2048858;29;20182;-69
2023/10/09 03:16:29;;;;;;;3.27;0.50;;;;;;;13.52;100.00;102288.63;2048657;29;20431;-69
2023/10/09 03:17:30;;;;;;;4.77;0.57;;;;;;;13.44;100.00;102292.72;2047516;29;20440;-69
2023/10/09 03:18:30;;;;;;;1.80;0.83;;;;;;;13.42;100.00;102297.09;2048760;29;20266;-69
2023/10/09 03:19:38;;;;;;;2.30;0.80;;;;;;;13.39;100.00;102303.47;2048793;29;20248;-69
2023/10/09 03:20:40;;;;;;;1.00;0.60;;;;;;;13.35;100.00;102305.50;2048374;29;20178;-69
2023/10/09 03:21:41;;;;;;;4.77;0.67;;;;;;;13.31;100.00;102299.16;2048665;29;20453;-69
2023/10/09 03:22:42;;;;;;;4.13;0.60;;;;;;;13.03;100.00;102271.56;2048471;29;20449;-69
2023/10/09 03:23:50;;;;;;;1.97;0.63;;;;;;;13.22;100.00;102298.88;2048448;29;20179;-69
2023/10/09 03:24:52;;;;;;;2.87;0.60;;;;;;;12.60;100.00;102192.38;2048197;29;20422;-69
2023/10/09 03:25:53;;;;;;;1.60;0.70;;;;;;;13.21;100.00;102289.72;2048389;29;20408;-69
2023/10/09 03:26:55;;;;;;;1.93;0.80;;;;;;;13.22;100.00;102290.50;2048250;28;20504;-69
2023/10/09 03:27:56;;;;;;;1.73;0.70;;;;;;;13.20;100.00;102295.69;2047308;29;20779;-69
2023/10/09 03:29:00;;;;;;;1.00;0.60;;;;;;;13.21;100.00;102286.16;2041975;29;20901;-69
2023/10/09 03:30:05;;;;;;;3.47;0.80;;;;;;;13.17;100.00;102296.53;2046867;29;20198;-69
2023/10/09 03:31:06;;;;;;;0.63;0.57;;;;;;;13.14;100.00;102287.00;2039779;29;20440;-69
2023/10/09 03:32:08;;;;;;;1.13;0.70;;;;;;;13.12;100.00;102283.81;2036811;29;20441;-69
2023/10/09 03:33:09;;;;;;;8.23;0.83;;;;;;;13.07;100.00;102289.03;2054751;28;20471;-69
2023/10/09 03:34:10;;;;;;;1.87;0.70;;;;;;;13.00;100.00;102287.09;2056462;28;20465;-70
2023/10/09 03:35:16;;;;;;;2.60;1.03;;;;;;;12.99;100.00;102295.84;2055616;28;20196;-69
2023/10/09 03:36:17;;;;;;;1.40;0.93;;;;;;;12.92;100.00;102296.66;2056053;28;20494;-69
2023/10/09 03:37:34;;;;;;;2.90;0.80;;;;;;;12.90;100.00;102295.47;2056073;28;20427;-69
2023/10/09 03:38:36;;;;;;;2.63;0.73;;;;;;;12.36;100.00;102221.94;2056239;28;20168;-69
2023/10/09 03:39:41;;;;;;;2.07;0.90;;;;;;;12.80;100.00;102294.38;2056735;28;20416;-69
2023/10/09 03:40:47;;;;;;;3.70;0.50;;;;;;;12.69;100.00;102279.72;2054904;28;20418;-69
2023/10/09 03:41:50;;;;;;;3.83;1.00;;;;;;;12.75;100.00;102296.81;2049064;28;20404;-69
2023/10/09 03:42:50;;;;;;;1.70;0.63;;;;;;;12.71;100.00;102298.81;2054948;28;20453;-69
2023/10/09 03:43:51;;;;;;;2.20;0.70;;;;;;;12.71;100.00;102298.81;2056153;28;20455;-69
2023/10/09 03:44:57;;;;;;;1.50;0.63;;;;;;;12.73;100.00;102293.63;2056518;28;20206;-69
2023/10/09 03:45:59;;;;;;;1.20;0.90;;;;;;;12.65;100.00;102306.78;2056183;28;20219;-69
2023/10/09 03:47:00;;;;;;;1.27;0.60;;;;;;;12.58;100.00;102301.25;2055949;28;20438;-69
2023/10/09 03:48:08;;;;;;;1.13;0.70;;;;;;;12.56;100.00;102306.41;2055425;28;20450;-69
2023/10/09 03:49:11;;;;;;;0.60;0.47;;;;;;;12.50;100.00;102310.81;2056456;28;20497;-69
2023/10/09 03:50:26;;;;;;;1.97;0.60;;;;;;;12.49;100.00;102314.81;2056432;28;20463;-69
2023/10/09 03:51:27;;;;;;;2.50;0.60;;;;;;;12.48;100.00;102307.66;2063560;28;20468;-67
2023/10/09 03:52:30;;;;;;;0.63;0.60;;;;;;;12.48;100.00;102306.88;2061540;28;20439;-68
2023/10/09 03:53:31;;;;;;;1.40;0.70;;;;;;;11.81;100.00;102206.31;2054071;28;20506;-68
2023/10/09 03:54:32;;;;;;;1.83;0.90;;;;;;;12.46;100.00;102312.06;2055126;28;21026;-67
2023/10/09 03:55:38;;;;;;;2.27;0.83;;;;;;;12.43;100.00;102318.41;2055959;28;20596;-65
2023/10/09 03:56:38;;;;;;;1.40;0.90;;;;;;;12.43;100.00;102326.75;2053936;28;20537;-67
2023/10/09 03:57:40;;;;;;;3.37;0.80;;;;;;;12.35;100.00;102330.78;2053542;28;20441;-63
2023/10/09 03:58:46;;;;;;;1.37;0.70;;;;;;;12.68;100.00;102250.34;2058140;28;20194;-62
2023/10/09 03:59:46;;;;;;;3.33;0.67;;;;;;;14.10;100.00;102337.81;2056221;28;20434;-62
2023/10/09 04:00:49;;;;;;;1.10;0.70;;;;;;;15.07;100.00;102352.47;2051676;28;20505;-62
2023/10/09 04:01:52;;;;;;;1.40;0.60;;;;;;;15.43;100.00;102355.53;2050938;28;20284;-61
2023/10/09 04:02:57;;;;;;;3.17;0.70;;;;;;;15.86;100.00;102356.38;2055873;28;20943;-60
2023/10/09 04:04:01;;;;;;;1.90;0.90;;;;;;;15.93;100.00;102353.47;2055099;28;20426;-60
2023/10/09 04:05:02;;;;;;;2.63;0.80;;;;;;;16.17;100.00;102353.00;2055542;28;20434;-60
2023/10/09 04:06:04;;;;;;;2.03;0.63;;;;;;;16.47;100.00;102354.03;2056401;28;20453;-60
2023/10/09 04:07:06;;;;;;;3.13;0.60;;;;;;;16.70;100.00;102352.72;2055215;28;20243;-60
2023/10/09 04:08:28;;;;;;;1.43;0.70;;;;;;;16.83;100.00;102358.44;2055043;28;20445;-60
2023/10/09 04:09:28;;;;;;;7.37;1.43;;;;;;;17.15;100.00;102364.88;2056177;28;20426;-60
2023/10/09 04:10:51;;;;;;;0.87;0.60;;;;;;;17.27;100.00;102367.00;2055765;28;20465;-63
2023/10/09 04:13:17;;;;;;;1.20;0.73;;;;;;;17.40;100.00;102358.72;2055158;28;20504;-69
2023/10/09 04:14:33;;;;;;;1.70;0.60;;;;;;;17.60;100.00;102362.22;2054424;28;20463;-68
2023/10/09 04:15:35;;;;;;;2.63;1.00;;;;;;;17.67;100.00;102365.63;2054916;28;20402;-65
2023/10/09 04:16:51;;;;;;;5.37;1.13;;;;;;;17.90;100.00;102353.41;2054468;28;20426;-64
2023/10/09 04:17:51;;;;;;;1.67;0.73;;;;;;;17.91;100.00;102355.00;2054786;28;20517;-66
2023/10/09 04:18:52;;;;;;;1.17;0.60;;;;;;;18.06;100.00;102349.81;2055611;28;20414;-65
2023/10/09 04:21:33;;;;;;;4.53;0.67;;;;;;;17.81;100.00;102350.44;2055767;28;20187;-66
2023/10/09 04:22:39;;;;;;;3.63;0.90;;;;;;;17.85;100.00;102353.19;2055628;28;20826;-69
2023/10/09 04:24:58;;;;;;;1.37;0.70;;;;;;;18.12;100.00;102336.81;2054279;28;20885;-67
2023/10/09 04:25:59;;;;;;;1.30;0.70;;;;;;;18.04;100.00;102333.41;2054188;28;20457;-68
2023/10/09 04:27:02;;;;;;;4.23;0.90;;;;;;;18.29;100.00;102341.91;2054112;28;20751;-67
2023/10/09 04:28:09;;;;;;;1.23;0.60;;;;;;;18.31;100.00;102347.09;2047724;28;20842;-67
2023/10/09 04:29:18;;;;;;;2.57;1.33;;;;;;;18.20;100.00;102288.44;2055290;28;20454;-68
2023/10/09 04:30:19;;;;;;;3.40;1.00;;;;;;;18.74;100.00;102361.47;2055585;28;20420;-68
2023/10/09 04:31:22;;;;;;;3.37;0.80;;;;;;;18.84;100.00;102354.75;2056058;28;20429;-69
2023/10/09 04:32:24;;;;;;;3.20;0.60;;;;;;;18.96;100.00;102356.78;2063158;28;20273;-66
2023/10/09 04:34:34;;;;;;;3.73;1.50;;;;;;;18.99;95.38;102361.50;2058156;28;20429;-67
2023/10/09 04:35:37;;;;;;;4.80;1.17;;;;;;;18.68;90.17;102364.03;2057120;28;20549;-64
2023/10/09 04:36:46;;;;;;;3.23;0.77;;;;;;;18.33;88.75;102355.88;2053305;28;20213;-68
2023/10/09 04:37:52;;;;;;;3.20;0.83;;;;;;;17.81;88.89;102367.28;2052200;28;20454;-68
2023/10/09 04:42:58;;;;;;;4.50;1.40;;;;;;;16.44;98.21;102364.88;2051212;28;20848;-63
2023/10/09 04:46:05;;;;;;;3.83;2.20;;;;;;;15.83;100.00;102346.06;2051645;28;20415;-63
2023/10/09 04:46:44;;;;;;;5.50;2.03;;;;;;;15.70;100.00;102356.28;2050662;28;20999;-63
2023/10/09 04:47:57;;;;;;;2.20;1.57;;;;;;;15.55;100.00;102360.53;2049381;28;20991;-63
2023/10/09 04:49:15;;;;;;;4.23;1.60;;;;;;;15.26;100.00;102334.25;2048418;28;20430;-63
2023/10/09 04:51:34;;;;;;;1.57;0.70;;;;;;;14.56;100.00;102285.81;2054514;28;20434;-63
2023/10/09 04:53:44;;;;;;;4.40;2.40;;;;;;;14.79;100.00;102358.47;2054638;28;20438;-63
2023/10/09 04:56:05;;;;;;;4.03;2.17;;;;;;;14.57;100.00;102364.75;2054420;28;20410;-63
2023/10/09 04:57:17;;;;;;;4.10;1.77;;;;;;;13.85;100.00;102267.59;2053609;28;20473;-63
2023/10/09 04:58:23;;;;;;;5.97;1.83;;;;;;;14.32;100.00;102361.47;2043377;28;20484;-63
2023/10/09 04:59:24;;;;;;;6.50;1.70;;;;;;;13.78;100.00;102298.34;2050907;28;20457;-63
2023/10/09 05:01:36;;;;;;;2.43;1.10;;;;;;;13.96;100.00;102354.66;2050538;28;20796;-63
2023/10/09 05:02:37;;;;;;;4.60;0.80;;;;;;;13.98;100.00;102378.13;2048930;28;20174;-62
2023/10/09 05:04:41;;;;;;;5.80;0.83;;;;;;;13.82;100.00;102382.66;2053868;28;20474;-64
2023/10/09 05:06:57;;;;;;;7.37;1.13;;;;;;;13.67;100.00;102379.22;2049828;28;20991;-63
2023/10/09 05:08:16;;;;;;;2.43;1.03;;;;;;;13.61;100.00;102391.22;2054460;28;21019;-63
2023/10/09 05:09:20;;;;;;;5.10;1.40;;;;;;;13.24;100.00;102341.81;2030834;28;21055;-62
2023/10/09 05:10:25;;;;;;;3.83;1.73;;;;;;;13.46;100.00;102390.56;2035235;28;20467;-63
2023/10/09 05:12:47;;;;;;;4.30;2.17;;;;;;;13.34;100.00;102395.81;2031626;28;21134;-63
2023/10/09 05:13:57;;;;;;;3.57;1.80;;;;;;;12.76;100.00;102303.94;2048604;28;20837;-62
2023/10/09 05:15:13;;;;;;;5.77;1.80;;;;;;;13.19;100.00;102385.97;2043245;28;20803;-60
2023/10/09 05:16:25;;;;;;;6.37;2.10;;;;;;;13.22;100.00;102393.53;2029125;28;20454;-59
2023/10/09 05:17:25;;;;;;;4.73;2.50;;;;;;;13.08;100.00;102380.50;2051841;28;20526;-60
2023/10/09 05:18:27;;;;;;;4.70;2.17;;;;;;;13.12;100.00;102392.38;2052032;28;20551;-59
2023/10/09 05:19:41;;;;;;;6.17;1.53;;;;;;;13.04;100.00;102382.50;2052554;28;20190;-59
2023/10/09 05:21:28;;;;;;;5.43;2.10;;;;;;;13.05;100.00;102395.22;2051548;28;20420;-59
2023/10/09 05:22:36;;;;;;;4.13;2.63;;;;;;;13.01;100.00;102397.22;2036928;28;24035;-61
2023/10/09 05:23:44;;;;;;;5.57;2.50;;;;;;;12.99;100.00;102404.38;2048325;28;20995;-59
2023/10/09 05:24:47;;;;;;;4.03;1.97;;;;;;;12.95;100.00;102407.16;2033754;28;20576;-59
2023/10/09 05:25:53;;;;;;;9.23;2.00;;;;;;;12.94;100.00;102391.69;2031534;28;21336;-59